Cancun, Mexico

12:59 PM EST on March 27, 2015 (GMT -0500)
Cancun | | Change Station
CLOSE
Current Station
Personal Weather Station
Location: Cancun, QUINTANA ROO
Elevation: 40 ft
Nearby Weather Stations

Elev 40 ft 21.15 °N, 86.84 °W | Updated 9 minutes ago

Mostly Cloudy
Mostly Cloudy
84.8 °F
Feels Like 95 °F
N
10.0
Wind Variable Wind from SE
Gusts 20.0 mph

Today
High -- | Low -- °F
--% Chance of Precip.
Yesterday
High -- | Low -- °F
Precip. -- in
6:45 AM 7:00 PM
First Quarter, 54% visible
Pressure 29.99 in
Visibility 8.0 miles
Clouds Scattered Clouds 1500 ft
Mostly Cloudy 8000 ft
Mostly Cloudy 25000 ft
Heat Index 95 °F
Dew Point 77 °F
Humidity 77%
Rainfall 0.00 in
Snow Depth Not available.
UV 9 out of 12
Pollen Not available.
Air Quality Not available.
Flu Activity Not available.
METAR MMCZ 271747Z 11006KT 8SM SCT015CB BKN080 BKN250 23/22 A3000 RMK SLP154 57006 906 61655 8/363 RAE25 PCPN NE

More Conditions Fewer Conditions

Pressure 29.99 in
Visibility 8.0 miles
Clouds Scattered Clouds 1500 ft
Mostly Cloudy 8000 ft
Mostly Cloudy 25000 ft
Heat Index 95 °F
Dew Point 77 °F
Humidity 77%
Rainfall 0.00 in
Snow Depth Not available.
UV 9 out of 12
Pollen Not available.
Air Quality Not available.
Flu Activity Not available.
METAR MMCZ 271747Z 11006KT 8SM SCT015CB BKN080 BKN250 23/22 A3000 RMK SLP154 57006 906 61655 8/363 RAE25 PCPN NE

More Conditions Fewer Conditions

10-Day Weather Forecast

Almanac

Astronomy

Mar. 27, 2015 Rise Set
Actual Time
Civil Twilight
Nautical Twilight
Astronomical Twilight
Moon
Length of Visible Light
Length of Day
Tomorrow will be .
, % of the Moon is Illuminated

Today's Extremes

Country Highs Country Lows

Community

WunderPhotos

Upload Photos

1,808,772 photos uploaded!

WunderBlogs® & News

Nearby

Air Quality

  Air Quality AQ Index Pollutant
Not available.

Snow Depth

Station Depth Elevation

Earthquake Activity

City Distance Mag. Time & Date
Minimum magnitude displayed is 2.5.

Coastal Water Temperatures

Place Temperature

Stations

Nearby Weather Stations

Station Location Temp. Windchill Dew Point Humidity Wind Precip. Elev Updated Type